sensor_id;sensor_type;location;lat;lon;timestamp;P1;durP1;ratioP1;P2;durP2;ratioP2
63782;SDS011;49925;52.522;5.732;2023-08-08T00:01:37;12.65;;;6.18;;
63782;SDS011;49925;52.522;5.732;2023-08-08T00:04:05;15.90;;;5.63;;
63782;SDS011;49925;52.522;5.732;2023-08-08T00:06:32;18.48;;;6.50;;
63782;SDS011;49925;52.522;5.732;2023-08-08T00:08:59;22.17;;;6.65;;
63782;SDS011;49925;52.522;5.732;2023-08-08T00:11:27;17.77;;;6.22;;
63782;SDS011;49925;52.522;5.732;2023-08-08T00:13:54;20.13;;;7.05;;
63782;SDS011;49925;52.522;5.732;2023-08-08T00:16:21;18.77;;;6.78;;
63782;SDS011;49925;52.522;5.732;2023-08-08T00:18:49;26.50;;;7.00;;
63782;SDS011;49925;52.522;5.732;2023-08-08T00:21:18;24.58;;;6.25;;
63782;SDS011;49925;52.522;5.732;2023-08-08T00:23:46;17.30;;;6.40;;
63782;SDS011;49925;52.522;5.732;2023-08-08T00:26:14;19.13;;;6.88;;
63782;SDS011;49925;52.522;5.732;2023-08-08T00:28:41;24.92;;;7.35;;
63782;SDS011;49925;52.522;5.732;2023-08-08T00:31:08;16.92;;;6.20;;
63782;SDS011;49925;52.522;5.732;2023-08-08T00:33:35;15.73;;;6.10;;
63782;SDS011;49925;52.522;5.732;2023-08-08T00:36:02;17.92;;;6.10;;
63782;SDS011;49925;52.522;5.732;2023-08-08T00:38:30;26.02;;;7.40;;
63782;SDS011;49925;52.522;5.732;2023-08-08T00:40:57;18.65;;;6.55;;
63782;SDS011;49925;52.522;5.732;2023-08-08T00:43:24;16.85;;;6.50;;
63782;SDS011;49925;52.522;5.732;2023-08-08T00:45:52;26.40;;;7.75;;
63782;SDS011;49925;52.522;5.732;2023-08-08T00:48:19;20.38;;;7.32;;
63782;SDS011;49925;52.522;5.732;2023-08-08T00:50:47;20.00;;;9.00;;
63782;SDS011;49925;52.522;5.732;2023-08-08T00:53:15;19.92;;;8.05;;
63782;SDS011;49925;52.522;5.732;2023-08-08T00:55:42;36.53;;;9.45;;
63782;SDS011;49925;52.522;5.732;2023-08-08T00:58:09;31.20;;;10.10;;
63782;SDS011;49925;52.522;5.732;2023-08-08T01:00:36;30.85;;;8.45;;
63782;SDS011;49925;52.522;5.732;2023-08-08T01:03:04;39.95;;;8.73;;
63782;SDS011;49925;52.522;5.732;2023-08-08T01:05:33;26.25;;;7.97;;
63782;SDS011;49925;52.522;5.732;2023-08-08T01:08:06;24.83;;;7.28;;
63782;SDS011;49925;52.522;5.732;2023-08-08T01:10:35;25.77;;;8.00;;
63782;SDS011;49925;52.522;5.732;2023-08-08T01:13:06;16.98;;;7.95;;
63782;SDS011;49925;52.522;5.732;2023-08-08T01:18:05;30.67;;;8.25;;
63782;SDS011;49925;52.522;5.732;2023-08-08T01:20:34;29.95;;;8.40;;
63782;SDS011;49925;52.522;5.732;2023-08-08T01:25:48;29.05;;;8.60;;
63782;SDS011;49925;52.522;5.732;2023-08-08T01:28:15;24.88;;;8.48;;
63782;SDS011;49925;52.522;5.732;2023-08-08T01:30:48;23.38;;;8.55;;
63782;SDS011;49925;52.522;5.732;2023-08-08T01:33:15;27.48;;;8.73;;
63782;SDS011;49925;52.522;5.732;2023-08-08T01:35:43;33.22;;;8.68;;
63782;SDS011;49925;52.522;5.732;2023-08-08T01:40:46;25.80;;;8.52;;
63782;SDS011;49925;52.522;5.732;2023-08-08T01:43:14;30.17;;;8.02;;
63782;SDS011;49925;52.522;5.732;2023-08-08T01:45:41;23.02;;;8.00;;
63782;SDS011;49925;52.522;5.732;2023-08-08T01:48:10;38.35;;;7.85;;
63782;SDS011;49925;52.522;5.732;2023-08-08T01:50:38;25.75;;;7.70;;
63782;SDS011;49925;52.522;5.732;2023-08-08T01:53:05;36.17;;;7.93;;
63782;SDS011;49925;52.522;5.732;2023-08-08T01:55:32;28.42;;;7.10;;
63782;SDS011;49925;52.522;5.732;2023-08-08T01:57:59;22.63;;;7.22;;
63782;SDS011;49925;52.522;5.732;2023-08-08T02:00:27;37.38;;;7.28;;
63782;SDS011;49925;52.522;5.732;2023-08-08T02:02:54;26.88;;;6.65;;
63782;SDS011;49925;52.522;5.732;2023-08-08T02:05:22;24.00;;;6.75;;
63782;SDS011;49925;52.522;5.732;2023-08-08T02:07:49;16.27;;;5.72;;
63782;SDS011;49925;52.522;5.732;2023-08-08T02:10:17;22.17;;;6.03;;
63782;SDS011;49925;52.522;5.732;2023-08-08T02:12:44;20.42;;;5.75;;
63782;SDS011;49925;52.522;5.732;2023-08-08T02:15:11;19.83;;;6.10;;
63782;SDS011;49925;52.522;5.732;2023-08-08T02:17:38;30.92;;;6.40;;
63782;SDS011;49925;52.522;5.732;2023-08-08T02:20:06;28.58;;;6.25;;
63782;SDS011;49925;52.522;5.732;2023-08-08T02:22:34;20.77;;;5.88;;
63782;SDS011;49925;52.522;5.732;2023-08-08T02:25:01;22.95;;;6.47;;
63782;SDS011;49925;52.522;5.732;2023-08-08T02:27:29;16.10;;;5.07;;
63782;SDS011;49925;52.522;5.732;2023-08-08T02:29:56;19.38;;;5.20;;
63782;SDS011;49925;52.522;5.732;2023-08-08T02:32:24;18.02;;;5.10;;
63782;SDS011;49925;52.522;5.732;2023-08-08T02:34:53;24.90;;;5.20;;
63782;SDS011;49925;52.522;5.732;2023-08-08T02:37:21;17.55;;;5.10;;
63782;SDS011;49925;52.522;5.732;2023-08-08T02:39:48;21.63;;;5.28;;
63782;SDS011;49925;52.522;5.732;2023-08-08T02:42:15;18.00;;;4.43;;
63782;SDS011;49925;52.522;5.732;2023-08-08T02:44:42;24.58;;;5.78;;
63782;SDS011;49925;52.522;5.732;2023-08-08T02:47:10;18.55;;;5.03;;
63782;SDS011;49925;52.522;5.732;2023-08-08T02:49:37;23.42;;;4.57;;
63782;SDS011;49925;52.522;5.732;2023-08-08T02:52:07;14.68;;;4.07;;
63782;SDS011;49925;52.522;5.732;2023-08-08T02:54:34;19.80;;;4.53;;
63782;SDS011;49925;52.522;5.732;2023-08-08T02:57:01;16.70;;;4.80;;
63782;SDS011;49925;52.522;5.732;2023-08-08T02:59:29;21.67;;;4.32;;
63782;SDS011;49925;52.522;5.732;2023-08-08T03:01:56;15.00;;;4.22;;
63782;SDS011;49925;52.522;5.732;2023-08-08T03:04:24;10.95;;;4.00;;
63782;SDS011;49925;52.522;5.732;2023-08-08T03:06:52;16.33;;;4.18;;
63782;SDS011;49925;52.522;5.732;2023-08-08T03:09:19;18.30;;;4.05;;
63782;SDS011;49925;52.522;5.732;2023-08-08T03:11:46;11.75;;;3.97;;
63782;SDS011;49925;52.522;5.732;2023-08-08T03:14:13;15.35;;;4.38;;
63782;SDS011;49925;52.522;5.732;2023-08-08T03:16:41;17.05;;;4.00;;
63782;SDS011;49925;52.522;5.732;2023-08-08T03:19:08;17.02;;;4.90;;
63782;SDS011;49925;52.522;5.732;2023-08-08T03:21:35;17.58;;;4.18;;
63782;SDS011;49925;52.522;5.732;2023-08-08T03:24:02;18.27;;;3.90;;
63782;SDS011;49925;52.522;5.732;2023-08-08T03:26:30;15.85;;;3.72;;
63782;SDS011;49925;52.522;5.732;2023-08-08T03:28:57;9.70;;;4.03;;
63782;SDS011;49925;52.522;5.732;2023-08-08T03:31:24;16.50;;;4.18;;
63782;SDS011;49925;52.522;5.732;2023-08-08T03:33:53;19.02;;;3.88;;
63782;SDS011;49925;52.522;5.732;2023-08-08T03:36:21;20.55;;;4.10;;
63782;SDS011;49925;52.522;5.732;2023-08-08T03:38:48;20.55;;;3.35;;
63782;SDS011;49925;52.522;5.732;2023-08-08T03:41:16;16.77;;;3.55;;
63782;SDS011;49925;52.522;5.732;2023-08-08T03:43:43;15.18;;;3.55;;
63782;SDS011;49925;52.522;5.732;2023-08-08T03:46:11;17.17;;;4.10;;
63782;SDS011;49925;52.522;5.732;2023-08-08T03:48:38;23.70;;;3.72;;
63782;SDS011;49925;52.522;5.732;2023-08-08T03:51:06;22.42;;;4.03;;
63782;SDS011;49925;52.522;5.732;2023-08-08T03:53:36;11.68;;;3.30;;
63782;SDS011;49925;52.522;5.732;2023-08-08T03:56:03;12.38;;;3.30;;
63782;SDS011;49925;52.522;5.732;2023-08-08T03:58:31;20.10;;;3.60;;
63782;SDS011;49925;52.522;5.732;2023-08-08T04:00:58;18.23;;;3.38;;
63782;SDS011;49925;52.522;5.732;2023-08-08T04:03:25;15.90;;;3.30;;
63782;SDS011;49925;52.522;5.732;2023-08-08T04:05:53;12.25;;;3.10;;
63782;SDS011;49925;52.522;5.732;2023-08-08T04:08:21;19.65;;;3.65;;
63782;SDS011;49925;52.522;5.732;2023-08-08T04:10:48;14.10;;;3.88;;
63782;SDS011;49925;52.522;5.732;2023-08-08T04:13:15;18.33;;;3.50;;
63782;SDS011;49925;52.522;5.732;2023-08-08T04:15:43;17.37;;;3.53;;
63782;SDS011;49925;52.522;5.732;2023-08-08T04:18:10;18.83;;;3.93;;
63782;SDS011;49925;52.522;5.732;2023-08-08T04:20:38;22.10;;;4.13;;
63782;SDS011;49925;52.522;5.732;2023-08-08T04:23:05;14.53;;;3.23;;
63782;SDS011;49925;52.522;5.732;2023-08-08T04:25:32;17.15;;;3.60;;
63782;SDS011;49925;52.522;5.732;2023-08-08T04:27:59;26.73;;;3.40;;
63782;SDS011;49925;52.522;5.732;2023-08-08T04:30:27;11.38;;;3.30;;
63782;SDS011;49925;52.522;5.732;2023-08-08T04:32:54;12.15;;;3.40;;
63782;SDS011;49925;52.522;5.732;2023-08-08T04:35:21;30.58;;;3.97;;
63782;SDS011;49925;52.522;5.732;2023-08-08T04:37:48;15.32;;;3.65;;
63782;SDS011;49925;52.522;5.732;2023-08-08T04:40:16;15.80;;;3.22;;
63782;SDS011;49925;52.522;5.732;2023-08-08T04:42:43;16.85;;;3.60;;
63782;SDS011;49925;52.522;5.732;2023-08-08T04:45:10;20.55;;;3.47;;
63782;SDS011;49925;52.522;5.732;2023-08-08T04:47:39;15.73;;;3.40;;
63782;SDS011;49925;52.522;5.732;2023-08-08T04:50:06;16.80;;;3.78;;
63782;SDS011;49925;52.522;5.732;2023-08-08T04:52:34;22.98;;;3.53;;
63782;SDS011;49925;52.522;5.732;2023-08-08T04:55:01;11.25;;;3.60;;
63782;SDS011;49925;52.522;5.732;2023-08-08T04:57:28;9.60;;;3.25;;
63782;SDS011;49925;52.522;5.732;2023-08-08T04:59:56;21.85;;;3.30;;
63782;SDS011;49925;52.522;5.732;2023-08-08T05:02:23;21.63;;;3.17;;
63782;SDS011;49925;52.522;5.732;2023-08-08T05:04:51;17.08;;;3.38;;
63782;SDS011;49925;52.522;5.732;2023-08-08T05:07:18;15.33;;;3.23;;
63782;SDS011;49925;52.522;5.732;2023-08-08T05:09:46;13.70;;;3.30;;
63782;SDS011;49925;52.522;5.732;2023-08-08T05:12:13;11.73;;;2.90;;
63782;SDS011;49925;52.522;5.732;2023-08-08T05:14:40;18.57;;;2.77;;
63782;SDS011;49925;52.522;5.732;2023-08-08T05:17:08;18.40;;;3.63;;
63782;SDS011;49925;52.522;5.732;2023-08-08T05:19:35;24.50;;;3.67;;
63782;SDS011;49925;52.522;5.732;2023-08-08T05:22:02;8.43;;;2.78;;
63782;SDS011;49925;52.522;5.732;2023-08-08T05:24:29;17.67;;;3.30;;
63782;SDS011;49925;52.522;5.732;2023-08-08T05:26:56;22.13;;;2.90;;
63782;SDS011;49925;52.522;5.732;2023-08-08T05:29:24;16.88;;;2.88;;
63782;SDS011;49925;52.522;5.732;2023-08-08T05:31:51;13.25;;;2.67;;
63782;SDS011;49925;52.522;5.732;2023-08-08T05:34:18;24.58;;;4.38;;
63782;SDS011;49925;52.522;5.732;2023-08-08T05:36:46;13.55;;;2.92;;
63782;SDS011;49925;52.522;5.732;2023-08-08T05:39:17;16.63;;;4.30;;
63782;SDS011;49925;52.522;5.732;2023-08-08T05:41:44;15.98;;;2.92;;
63782;SDS011;49925;52.522;5.732;2023-08-08T05:44:11;14.05;;;2.90;;
63782;SDS011;49925;52.522;5.732;2023-08-08T05:46:39;19.25;;;3.20;;
63782;SDS011;49925;52.522;5.732;2023-08-08T05:49:06;12.23;;;2.53;;
63782;SDS011;49925;52.522;5.732;2023-08-08T05:51:33;17.40;;;2.60;;
63782;SDS011;49925;52.522;5.732;2023-08-08T05:54:00;18.02;;;2.92;;
63782;SDS011;49925;52.522;5.732;2023-08-08T05:56:34;11.02;;;2.30;;
63782;SDS011;49925;52.522;5.732;2023-08-08T05:59:03;12.98;;;2.45;;
63782;SDS011;49925;52.522;5.732;2023-08-08T06:01:30;16.60;;;2.25;;
63782;SDS011;49925;52.522;5.732;2023-08-08T06:03:59;12.70;;;2.35;;
63782;SDS011;49925;52.522;5.732;2023-08-08T06:06:26;17.20;;;2.83;;
63782;SDS011;49925;52.522;5.732;2023-08-08T06:08:53;13.88;;;3.05;;
63782;SDS011;49925;52.522;5.732;2023-08-08T06:11:21;12.63;;;3.38;;
63782;SDS011;49925;52.522;5.732;2023-08-08T06:13:48;16.07;;;2.77;;
63782;SDS011;49925;52.522;5.732;2023-08-08T06:16:15;21.45;;;2.75;;
63782;SDS011;49925;52.522;5.732;2023-08-08T06:18:42;23.95;;;3.00;;
63782;SDS011;49925;52.522;5.732;2023-08-08T06:21:10;17.65;;;2.50;;
63782;SDS011;49925;52.522;5.732;2023-08-08T06:23:37;18.55;;;2.97;;
63782;SDS011;49925;52.522;5.732;2023-08-08T06:26:05;15.20;;;2.47;;
63782;SDS011;49925;52.522;5.732;2023-08-08T06:28:33;11.05;;;2.58;;
63782;SDS011;49925;52.522;5.732;2023-08-08T06:31:01;22.58;;;3.00;;
63782;SDS011;49925;52.522;5.732;2023-08-08T06:33:28;14.27;;;2.70;;
63782;SDS011;49925;52.522;5.732;2023-08-08T06:35:57;15.55;;;2.80;;
63782;SDS011;49925;52.522;5.732;2023-08-08T06:38:24;12.48;;;2.50;;
63782;SDS011;49925;52.522;5.732;2023-08-08T06:40:54;12.55;;;2.42;;
63782;SDS011;49925;52.522;5.732;2023-08-08T06:43:22;18.25;;;2.60;;
63782;SDS011;49925;52.522;5.732;2023-08-08T06:45:51;14.00;;;2.90;;
63782;SDS011;49925;52.522;5.732;2023-08-08T06:48:18;14.77;;;2.47;;
63782;SDS011;49925;52.522;5.732;2023-08-08T21:32:25;17.48;;;6.13;;
63782;SDS011;49925;52.522;5.732;2023-08-08T21:34:53;13.18;;;5.93;;
63782;SDS011;49925;52.522;5.732;2023-08-08T21:37:20;17.02;;;5.95;;
63782;SDS011;49925;52.522;5.732;2023-08-08T21:39:49;14.32;;;6.03;;
63782;SDS011;49925;52.522;5.732;2023-08-08T21:42:16;17.67;;;6.03;;
63782;SDS011;49925;52.522;5.732;2023-08-08T21:44:44;19.17;;;5.55;;
63782;SDS011;49925;52.522;5.732;2023-08-08T21:47:11;18.63;;;6.38;;
63782;SDS011;49925;52.522;5.732;2023-08-08T21:49:38;15.43;;;6.15;;
63782;SDS011;49925;52.522;5.732;2023-08-08T21:52:05;14.85;;;5.95;;
63782;SDS011;49925;52.522;5.732;2023-08-08T21:54:39;12.68;;;6.07;;
63782;SDS011;49925;52.522;5.732;2023-08-08T21:57:07;17.58;;;6.10;;
63782;SDS011;49925;52.522;5.732;2023-08-08T21:59:36;14.73;;;5.72;;
63782;SDS011;49925;52.522;5.732;2023-08-08T22:02:03;18.23;;;6.15;;
63782;SDS011;49925;52.522;5.732;2023-08-08T22:04:31;11.18;;;5.80;;
63782;SDS011;49925;52.522;5.732;2023-08-08T22:07:01;19.55;;;6.43;;
63782;SDS011;49925;52.522;5.732;2023-08-08T22:09:29;17.33;;;6.53;;
63782;SDS011;49925;52.522;5.732;2023-08-08T22:12:02;17.13;;;6.40;;
63782;SDS011;49925;52.522;5.732;2023-08-08T22:14:29;15.73;;;6.60;;
63782;SDS011;49925;52.522;5.732;2023-08-08T22:17:00;18.10;;;6.68;;
63782;SDS011;49925;52.522;5.732;2023-08-08T22:19:29;19.98;;;7.28;;
63782;SDS011;49925;52.522;5.732;2023-08-08T22:21:57;27.08;;;7.60;;
63782;SDS011;49925;52.522;5.732;2023-08-08T22:24:24;17.30;;;6.65;;
63782;SDS011;49925;52.522;5.732;2023-08-08T22:26:59;22.63;;;7.30;;
63782;SDS011;49925;52.522;5.732;2023-08-08T22:29:31;16.70;;;7.30;;
63782;SDS011;49925;52.522;5.732;2023-08-08T22:31:58;15.68;;;7.18;;
63782;SDS011;49925;52.522;5.732;2023-08-08T22:34:25;21.75;;;7.38;;
63782;SDS011;49925;52.522;5.732;2023-08-08T22:37:00;19.55;;;8.27;;
63782;SDS011;49925;52.522;5.732;2023-08-08T22:39:28;17.85;;;8.25;;
63782;SDS011;49925;52.522;5.732;2023-08-08T22:41:55;27.10;;;8.60;;
63782;SDS011;49925;52.522;5.732;2023-08-08T22:44:22;18.05;;;7.45;;
63782;SDS011;49925;52.522;5.732;2023-08-08T22:46:51;22.98;;;8.52;;
63782;SDS011;49925;52.522;5.732;2023-08-08T22:49:18;18.58;;;8.00;;
63782;SDS011;49925;52.522;5.732;2023-08-08T22:51:46;21.75;;;8.50;;
63782;SDS011;49925;52.522;5.732;2023-08-08T22:54:13;18.05;;;8.35;;
63782;SDS011;49925;52.522;5.732;2023-08-08T22:56:41;21.88;;;9.15;;
63782;SDS011;49925;52.522;5.732;2023-08-08T22:59:08;18.65;;;8.63;;
63782;SDS011;49925;52.522;5.732;2023-08-08T23:01:35;21.00;;;8.63;;
63782;SDS011;49925;52.522;5.732;2023-08-08T23:04:10;21.80;;;9.07;;
63782;SDS011;49925;52.522;5.732;2023-08-08T23:06:37;18.95;;;8.90;;
63782;SDS011;49925;52.522;5.732;2023-08-08T23:09:05;20.92;;;10.38;;
63782;SDS011;49925;52.522;5.732;2023-08-08T23:11:32;19.73;;;9.63;;
63782;SDS011;49925;52.522;5.732;2023-08-08T23:13:59;17.98;;;10.13;;
63782;SDS011;49925;52.522;5.732;2023-08-08T23:16:26;22.73;;;10.32;;
63782;SDS011;49925;52.522;5.732;2023-08-08T23:18:57;20.17;;;9.68;;
63782;SDS011;49925;52.522;5.732;2023-08-08T23:21:25;22.35;;;9.95;;
63782;SDS011;49925;52.522;5.732;2023-08-08T23:23:52;25.27;;;11.23;;
63782;SDS011;49925;52.522;5.732;2023-08-08T23:26:23;22.80;;;11.10;;
63782;SDS011;49925;52.522;5.732;2023-08-08T23:28:51;21.77;;;10.05;;
63782;SDS011;49925;52.522;5.732;2023-08-08T23:31:19;19.25;;;9.82;;
63782;SDS011;49925;52.522;5.732;2023-08-08T23:33:52;21.73;;;9.35;;
63782;SDS011;49925;52.522;5.732;2023-08-08T23:36:22;24.75;;;10.40;;
63782;SDS011;49925;52.522;5.732;2023-08-08T23:38:51;22.55;;;10.95;;
63782;SDS011;49925;52.522;5.732;2023-08-08T23:41:21;26.85;;;10.93;;
63782;SDS011;49925;52.522;5.732;2023-08-08T23:43:54;26.75;;;10.85;;
63782;SDS011;49925;52.522;5.732;2023-08-08T23:46:21;24.70;;;10.35;;
63782;SDS011;49925;52.522;5.732;2023-08-08T23:48:49;26.27;;;10.90;;
63782;SDS011;49925;52.522;5.732;2023-08-08T23:51:16;16.42;;;9.48;;
63782;SDS011;49925;52.522;5.732;2023-08-08T23:53:43;24.05;;;10.43;;
63782;SDS011;49925;52.522;5.732;2023-08-08T23:56:11;19.13;;;10.35;;
63782;SDS011;49925;52.522;5.732;2023-08-08T23:58:41;22.98;;;10.38;;
